sensor_id;sensor_type;location;lat;lon;timestamp;temperature;humidity
49765;DHT22;35657;51.204;-4.130;2023-02-01T00:01:35;8.50;99.90
49765;DHT22;35657;51.204;-4.130;2023-02-01T00:04:00;8.50;99.90
49765;DHT22;35657;51.204;-4.130;2023-02-01T00:06:26;8.50;99.90
49765;DHT22;35657;51.204;-4.130;2023-02-01T00:08:53;8.50;99.90
49765;DHT22;35657;51.204;-4.130;2023-02-01T00:11:20;8.50;99.90
49765;DHT22;35657;51.204;-4.130;2023-02-01T00:13:46;8.50;99.90
49765;DHT22;35657;51.204;-4.130;2023-02-01T00:16:14;8.50;99.90
49765;DHT22;35657;51.204;-4.130;2023-02-01T00:18:45;8.50;99.90
49765;DHT22;35657;51.204;-4.130;2023-02-01T00:21:15;8.50;99.90
49765;DHT22;35657;51.204;-4.130;2023-02-01T00:23:41;8.50;99.90
49765;DHT22;35657;51.204;-4.130;2023-02-01T00:26:16;8.50;99.90
49765;DHT22;35657;51.204;-4.130;2023-02-01T00:28:42;8.50;99.90
49765;DHT22;35657;51.204;-4.130;2023-02-01T00:31:07;8.50;99.90
49765;DHT22;35657;51.204;-4.130;2023-02-01T00:33:34;8.50;99.90
49765;DHT22;35657;51.204;-4.130;2023-02-01T00:36:02;8.50;99.90
49765;DHT22;35657;51.204;-4.130;2023-02-01T00:38:29;8.50;99.90
49765;DHT22;35657;51.204;-4.130;2023-02-01T00:41:01;8.50;99.90
49765;DHT22;35657;51.204;-4.130;2023-02-01T00:43:27;8.50;99.90
49765;DHT22;35657;51.204;-4.130;2023-02-01T00:45:53;8.50;99.90
49765;DHT22;35657;51.204;-4.130;2023-02-01T00:48:18;8.60;99.90
49765;DHT22;35657;51.204;-4.130;2023-02-01T00:50:44;8.60;99.90
49765;DHT22;35657;51.204;-4.130;2023-02-01T00:53:11;8.50;99.90
49765;DHT22;35657;51.204;-4.130;2023-02-01T00:55:37;8.40;99.90
49765;DHT22;35657;51.204;-4.130;2023-02-01T00:58:03;8.40;99.90
49765;DHT22;35657;51.204;-4.130;2023-02-01T01:00:34;8.40;99.90
49765;DHT22;35657;51.204;-4.130;2023-02-01T01:03:00;8.40;99.90
49765;DHT22;35657;51.204;-4.130;2023-02-01T01:05:26;8.40;99.90
49765;DHT22;35657;51.204;-4.130;2023-02-01T01:07:53;8.40;99.90
49765;DHT22;35657;51.204;-4.130;2023-02-01T01:10:19;8.40;99.90
49765;DHT22;35657;51.204;-4.130;2023-02-01T01:12:45;8.30;99.90
49765;DHT22;35657;51.204;-4.130;2023-02-01T01:15:11;8.30;99.90
49765;DHT22;35657;51.204;-4.130;2023-02-01T01:17:36;8.30;99.90
49765;DHT22;35657;51.204;-4.130;2023-02-01T01:20:03;8.30;99.90
49765;DHT22;35657;51.204;-4.130;2023-02-01T01:22:29;8.30;99.90
49765;DHT22;35657;51.204;-4.130;2023-02-01T01:24:55;8.30;99.90
49765;DHT22;35657;51.204;-4.130;2023-02-01T01:27:20;8.30;99.90
49765;DHT22;35657;51.204;-4.130;2023-02-01T01:29:49;8.20;99.90
49765;DHT22;35657;51.204;-4.130;2023-02-01T01:32:15;8.20;99.90
49765;DHT22;35657;51.204;-4.130;2023-02-01T01:34:41;8.20;99.90
49765;DHT22;35657;51.204;-4.130;2023-02-01T01:37:07;8.10;99.90
49765;DHT22;35657;51.204;-4.130;2023-02-01T01:39:32;8.10;99.90
49765;DHT22;35657;51.204;-4.130;2023-02-01T01:41:58;8.10;99.90
49765;DHT22;35657;51.204;-4.130;2023-02-01T01:45:00;8.10;99.90
49765;DHT22;35657;51.204;-4.130;2023-02-01T01:47:35;8.10;99.90
49765;DHT22;35657;51.204;-4.130;2023-02-01T01:50:04;8.10;99.90
49765;DHT22;35657;51.204;-4.130;2023-02-01T01:52:32;8.20;99.90
49765;DHT22;35657;51.204;-4.130;2023-02-01T01:54:59;8.10;99.90
49765;DHT22;35657;51.204;-4.130;2023-02-01T01:57:32;8.10;99.90
49765;DHT22;35657;51.204;-4.130;2023-02-01T02:00:11;8.10;99.90
49765;DHT22;35657;51.204;-4.130;2023-02-01T02:02:38;8.10;99.90
49765;DHT22;35657;51.204;-4.130;2023-02-01T02:05:05;8.00;99.90
49765;DHT22;35657;51.204;-4.130;2023-02-01T02:07:35;8.00;99.90
49765;DHT22;35657;51.204;-4.130;2023-02-01T02:10:04;8.00;99.90
49765;DHT22;35657;51.204;-4.130;2023-02-01T02:12:31;8.00;99.90
49765;DHT22;35657;51.204;-4.130;2023-02-01T02:14:57;8.00;99.90
49765;DHT22;35657;51.204;-4.130;2023-02-01T02:34:24;7.90;99.90
49765;DHT22;35657;51.204;-4.130;2023-02-01T02:37:16;7.90;99.90
49765;DHT22;35657;51.204;-4.130;2023-02-01T02:39:58;7.90;99.90
49765;DHT22;35657;51.204;-4.130;2023-02-01T02:42:31;7.90;99.90
49765;DHT22;35657;51.204;-4.130;2023-02-01T02:45:28;8.00;99.90
49765;DHT22;35657;51.204;-4.130;2023-02-01T02:51:05;8.00;99.90
49765;DHT22;35657;51.204;-4.130;2023-02-01T02:53:53;8.10;99.90
49765;DHT22;35657;51.204;-4.130;2023-02-01T02:56:41;8.00;99.90
49765;DHT22;35657;51.204;-4.130;2023-02-01T02:59:27;8.00;99.90
49765;DHT22;35657;51.204;-4.130;2023-02-01T03:02:13;7.90;99.90
49765;DHT22;35657;51.204;-4.130;2023-02-01T03:04:58;7.90;99.90
49765;DHT22;35657;51.204;-4.130;2023-02-01T03:13:05;8.00;99.90
49765;DHT22;35657;51.204;-4.130;2023-02-01T03:18:47;8.00;99.90
49765;DHT22;35657;51.204;-4.130;2023-02-01T03:21:10;8.00;99.90
49765;DHT22;35657;51.204;-4.130;2023-02-01T03:23:37;8.10;99.90
49765;DHT22;35657;51.204;-4.130;2023-02-01T03:26:10;8.10;99.90
49765;DHT22;35657;51.204;-4.130;2023-02-01T03:28:39;8.00;99.90
49765;DHT22;35657;51.204;-4.130;2023-02-01T03:31:07;8.00;99.90
49765;DHT22;35657;51.204;-4.130;2023-02-01T03:33:33;8.00;99.90
49765;DHT22;35657;51.204;-4.130;2023-02-01T03:38:41;8.00;99.90
49765;DHT22;35657;51.204;-4.130;2023-02-01T03:46:47;8.00;99.90
49765;DHT22;35657;51.204;-4.130;2023-02-01T03:49:20;8.00;99.90
49765;DHT22;35657;51.204;-4.130;2023-02-01T03:51:47;8.00;99.90
49765;DHT22;35657;51.204;-4.130;2023-02-01T03:54:15;8.00;99.90
49765;DHT22;35657;51.204;-4.130;2023-02-01T03:56:44;8.00;99.90
49765;DHT22;35657;51.204;-4.130;2023-02-01T03:59:12;8.00;99.90
49765;DHT22;35657;51.204;-4.130;2023-02-01T04:01:38;8.00;99.90
49765;DHT22;35657;51.204;-4.130;2023-02-01T04:04:04;8.00;99.90
49765;DHT22;35657;51.204;-4.130;2023-02-01T04:06:30;8.00;99.90
49765;DHT22;35657;51.204;-4.130;2023-02-01T04:08:56;7.90;99.90
49765;DHT22;35657;51.204;-4.130;2023-02-01T04:11:21;7.90;99.90
49765;DHT22;35657;51.204;-4.130;2023-02-01T04:13:47;7.90;99.90
49765;DHT22;35657;51.204;-4.130;2023-02-01T04:16:13;7.90;99.90
49765;DHT22;35657;51.204;-4.130;2023-02-01T04:18:38;7.90;99.90
49765;DHT22;35657;51.204;-4.130;2023-02-01T04:21:04;7.90;99.90
49765;DHT22;35657;51.204;-4.130;2023-02-01T04:23:30;7.90;99.90
49765;DHT22;35657;51.204;-4.130;2023-02-01T04:26:01;7.90;99.90
49765;DHT22;35657;51.204;-4.130;2023-02-01T04:28:28;7.90;99.90
49765;DHT22;35657;51.204;-4.130;2023-02-01T04:30:54;7.90;99.90
49765;DHT22;35657;51.204;-4.130;2023-02-01T04:33:19;7.90;99.90
49765;DHT22;35657;51.204;-4.130;2023-02-01T04:35:45;8.00;99.90
49765;DHT22;35657;51.204;-4.130;2023-02-01T04:38:11;8.00;99.90
49765;DHT22;35657;51.204;-4.130;2023-02-01T04:40:37;8.00;99.90
49765;DHT22;35657;51.204;-4.130;2023-02-01T04:43:03;8.00;99.90
49765;DHT22;35657;51.204;-4.130;2023-02-01T04:45:30;7.90;99.90
49765;DHT22;35657;51.204;-4.130;2023-02-01T04:47:56;8.00;99.90
49765;DHT22;35657;51.204;-4.130;2023-02-01T04:50:22;8.00;99.90
49765;DHT22;35657;51.204;-4.130;2023-02-01T04:52:49;8.00;99.90
49765;DHT22;35657;51.204;-4.130;2023-02-01T04:55:15;8.00;99.90
49765;DHT22;35657;51.204;-4.130;2023-02-01T04:57:41;8.00;99.90
49765;DHT22;35657;51.204;-4.130;2023-02-01T05:00:09;8.00;99.90
49765;DHT22;35657;51.204;-4.130;2023-02-01T05:02:35;8.00;99.90
49765;DHT22;35657;51.204;-4.130;2023-02-01T05:05:02;8.00;99.90
49765;DHT22;35657;51.204;-4.130;2023-02-01T05:07:28;8.00;99.90
49765;DHT22;35657;51.204;-4.130;2023-02-01T05:09:53;8.00;99.90
49765;DHT22;35657;51.204;-4.130;2023-02-01T05:12:19;8.00;99.90
49765;DHT22;35657;51.204;-4.130;2023-02-01T05:15:03;8.00;99.90
49765;DHT22;35657;51.204;-4.130;2023-02-01T05:17:29;8.00;99.90
49765;DHT22;35657;51.204;-4.130;2023-02-01T05:19:55;8.00;99.90
49765;DHT22;35657;51.204;-4.130;2023-02-01T05:22:20;8.00;99.90
49765;DHT22;35657;51.204;-4.130;2023-02-01T05:24:46;8.10;99.90
49765;DHT22;35657;51.204;-4.130;2023-02-01T05:27:12;8.10;99.90
49765;DHT22;35657;51.204;-4.130;2023-02-01T05:29:38;8.10;99.90
49765;DHT22;35657;51.204;-4.130;2023-02-01T05:32:03;8.10;99.90
49765;DHT22;35657;51.204;-4.130;2023-02-01T05:34:29;8.10;99.90
49765;DHT22;35657;51.204;-4.130;2023-02-01T05:36:55;8.10;99.90
49765;DHT22;35657;51.204;-4.130;2023-02-01T05:39:21;8.10;99.90
49765;DHT22;35657;51.204;-4.130;2023-02-01T05:41:46;8.10;99.90
49765;DHT22;35657;51.204;-4.130;2023-02-01T05:44:12;8.10;99.90
49765;DHT22;35657;51.204;-4.130;2023-02-01T05:46:38;8.10;99.90
49765;DHT22;35657;51.204;-4.130;2023-02-01T05:49:04;8.10;99.90
49765;DHT22;35657;51.204;-4.130;2023-02-01T05:51:30;8.10;99.90
49765;DHT22;35657;51.204;-4.130;2023-02-01T05:53:55;8.20;99.90
49765;DHT22;35657;51.204;-4.130;2023-02-01T05:56:21;8.20;99.90
49765;DHT22;35657;51.204;-4.130;2023-02-01T05:58:47;8.20;99.90
49765;DHT22;35657;51.204;-4.130;2023-02-01T06:01:16;8.20;99.90
49765;DHT22;35657;51.204;-4.130;2023-02-01T06:03:41;8.10;99.90
49765;DHT22;35657;51.204;-4.130;2023-02-01T06:06:07;8.10;99.90
49765;DHT22;35657;51.204;-4.130;2023-02-01T06:08:33;8.10;99.90
49765;DHT22;35657;51.204;-4.130;2023-02-01T06:11:03;8.10;99.90
49765;DHT22;35657;51.204;-4.130;2023-02-01T06:13:29;8.10;99.90
49765;DHT22;35657;51.204;-4.130;2023-02-01T06:15:55;8.10;99.90
49765;DHT22;35657;51.204;-4.130;2023-02-01T06:18:25;8.10;99.90
49765;DHT22;35657;51.204;-4.130;2023-02-01T06:20:55;8.10;99.90
49765;DHT22;35657;51.204;-4.130;2023-02-01T06:23:21;8.10;99.90
49765;DHT22;35657;51.204;-4.130;2023-02-01T06:25:50;8.10;99.90
49765;DHT22;35657;51.204;-4.130;2023-02-01T06:28:16;8.10;99.90
49765;DHT22;35657;51.204;-4.130;2023-02-01T06:30:41;8.10;99.90
49765;DHT22;35657;51.204;-4.130;2023-02-01T06:33:14;8.10;99.90
49765;DHT22;35657;51.204;-4.130;2023-02-01T06:35:43;8.10;99.90
49765;DHT22;35657;51.204;-4.130;2023-02-01T06:38:12;8.10;99.90
49765;DHT22;35657;51.204;-4.130;2023-02-01T06:40:39;8.10;99.90
49765;DHT22;35657;51.204;-4.130;2023-02-01T06:43:08;8.10;99.90
49765;DHT22;35657;51.204;-4.130;2023-02-01T06:45:34;8.10;99.90
49765;DHT22;35657;51.204;-4.130;2023-02-01T06:47:59;8.00;99.90
49765;DHT22;35657;51.204;-4.130;2023-02-01T06:50:26;8.10;99.90
49765;DHT22;35657;51.204;-4.130;2023-02-01T06:52:52;8.10;99.90
49765;DHT22;35657;51.204;-4.130;2023-02-01T06:55:18;8.10;99.90
49765;DHT22;35657;51.204;-4.130;2023-02-01T06:57:43;8.00;99.90
49765;DHT22;35657;51.204;-4.130;2023-02-01T07:00:09;8.10;99.90
49765;DHT22;35657;51.204;-4.130;2023-02-01T07:02:35;8.10;99.90
49765;DHT22;35657;51.204;-4.130;2023-02-01T07:05:01;8.00;99.90
49765;DHT22;35657;51.204;-4.130;2023-02-01T07:07:27;8.00;99.90
49765;DHT22;35657;51.204;-4.130;2023-02-01T07:09:52;8.00;99.90
49765;DHT22;35657;51.204;-4.130;2023-02-01T07:12:19;8.00;99.90
49765;DHT22;35657;51.204;-4.130;2023-02-01T07:14:44;8.00;99.90
49765;DHT22;35657;51.204;-4.130;2023-02-01T07:17:10;8.00;99.90
49765;DHT22;35657;51.204;-4.130;2023-02-01T07:19:36;8.00;99.90
49765;DHT22;35657;51.204;-4.130;2023-02-01T07:22:01;8.00;99.90
49765;DHT22;35657;51.204;-4.130;2023-02-01T07:24:27;8.00;99.90
49765;DHT22;35657;51.204;-4.130;2023-02-01T07:26:53;8.00;99.90
49765;DHT22;35657;51.204;-4.130;2023-02-01T07:29:19;8.30;99.90
49765;DHT22;35657;51.204;-4.130;2023-02-01T07:31:46;8.00;99.90
49765;DHT22;35657;51.204;-4.130;2023-02-01T07:34:11;8.00;99.90
49765;DHT22;35657;51.204;-4.130;2023-02-01T07:36:37;8.00;99.90
49765;DHT22;35657;51.204;-4.130;2023-02-01T07:39:04;8.00;99.90
49765;DHT22;35657;51.204;-4.130;2023-02-01T07:41:29;8.00;99.90
49765;DHT22;35657;51.204;-4.130;2023-02-01T07:43:55;8.00;99.90
49765;DHT22;35657;51.204;-4.130;2023-02-01T07:46:22;8.00;99.90
49765;DHT22;35657;51.204;-4.130;2023-02-01T07:48:47;8.00;99.90
49765;DHT22;35657;51.204;-4.130;2023-02-01T07:51:15;8.10;99.90
49765;DHT22;35657;51.204;-4.130;2023-02-01T07:53:41;8.10;99.90
49765;DHT22;35657;51.204;-4.130;2023-02-01T07:56:12;8.20;99.90
49765;DHT22;35657;51.204;-4.130;2023-02-01T07:58:38;8.30;99.90
49765;DHT22;35657;51.204;-4.130;2023-02-01T08:01:04;8.30;99.90
49765;DHT22;35657;51.204;-4.130;2023-02-01T08:04:07;8.20;99.90
49765;DHT22;35657;51.204;-4.130;2023-02-01T08:06:33;8.20;99.90
49765;DHT22;35657;51.204;-4.130;2023-02-01T08:09:00;8.20;99.90
49765;DHT22;35657;51.204;-4.130;2023-02-01T08:11:26;8.20;99.90
49765;DHT22;35657;51.204;-4.130;2023-02-01T08:13:54;8.10;99.90
49765;DHT22;35657;51.204;-4.130;2023-02-01T08:16:20;8.10;99.90
49765;DHT22;35657;51.204;-4.130;2023-02-01T08:18:46;8.10;99.90
49765;DHT22;35657;51.204;-4.130;2023-02-01T08:21:15;8.20;99.90
49765;DHT22;35657;51.204;-4.130;2023-02-01T08:23:41;8.20;99.90
49765;DHT22;35657;51.204;-4.130;2023-02-01T08:26:11;8.20;99.90
49765;DHT22;35657;51.204;-4.130;2023-02-01T08:28:39;8.20;99.90
49765;DHT22;35657;51.204;-4.130;2023-02-01T08:31:10;8.20;99.90
49765;DHT22;35657;51.204;-4.130;2023-02-01T08:33:37;8.20;99.90
49765;DHT22;35657;51.204;-4.130;2023-02-01T08:36:04;8.20;99.90
49765;DHT22;35657;51.204;-4.130;2023-02-01T08:38:30;8.20;99.90
49765;DHT22;35657;51.204;-4.130;2023-02-01T08:40:57;8.20;99.90
49765;DHT22;35657;51.204;-4.130;2023-02-01T08:43:28;8.30;99.90
49765;DHT22;35657;51.204;-4.130;2023-02-01T08:45:54;8.30;99.90
49765;DHT22;35657;51.204;-4.130;2023-02-01T08:48:21;8.30;99.90
49765;DHT22;35657;51.204;-4.130;2023-02-01T08:50:46;8.40;99.90
49765;DHT22;35657;51.204;-4.130;2023-02-01T08:53:12;8.40;99.90
49765;DHT22;35657;51.204;-4.130;2023-02-01T08:55:39;8.50;99.90
49765;DHT22;35657;51.204;-4.130;2023-02-01T08:58:05;8.60;99.90
49765;DHT22;35657;51.204;-4.130;2023-02-01T09:00:30;8.60;99.90
49765;DHT22;35657;51.204;-4.130;2023-02-01T09:02:56;8.60;99.90
49765;DHT22;35657;51.204;-4.130;2023-02-01T09:05:22;8.60;99.90
49765;DHT22;35657;51.204;-4.130;2023-02-01T09:07:52;8.50;99.90
49765;DHT22;35657;51.204;-4.130;2023-02-01T09:10:18;8.50;99.90
49765;DHT22;35657;51.204;-4.130;2023-02-01T09:12:43;8.50;99.90
49765;DHT22;35657;51.204;-4.130;2023-02-01T09:15:09;8.50;99.90
49765;DHT22;35657;51.204;-4.130;2023-02-01T09:17:36;8.50;99.90
49765;DHT22;35657;51.204;-4.130;2023-02-01T09:20:02;8.50;99.90
49765;DHT22;35657;51.204;-4.130;2023-02-01T09:22:28;8.60;99.90
49765;DHT22;35657;51.204;-4.130;2023-02-01T09:24:54;8.60;99.90
49765;DHT22;35657;51.204;-4.130;2023-02-01T09:27:21;8.60;99.90
49765;DHT22;35657;51.204;-4.130;2023-02-01T09:29:47;8.60;99.90
49765;DHT22;35657;51.204;-4.130;2023-02-01T09:32:21;8.70;99.90
49765;DHT22;35657;51.204;-4.130;2023-02-01T09:34:51;8.70;99.90
49765;DHT22;35657;51.204;-4.130;2023-02-01T09:37:18;8.80;99.90
49765;DHT22;35657;51.204;-4.130;2023-02-01T09:39:44;8.90;99.90
49765;DHT22;35657;51.204;-4.130;2023-02-01T09:47:54;9.00;99.90
49765;DHT22;35657;51.204;-4.130;2023-02-01T09:50:28;9.10;99.90
49765;DHT22;35657;51.204;-4.130;2023-02-01T09:53:02;9.10;99.90
49765;DHT22;35657;51.204;-4.130;2023-02-01T09:55:39;9.10;99.90
49765;DHT22;35657;51.204;-4.130;2023-02-01T10:00:39;9.20;99.90
49765;DHT22;35657;51.204;-4.130;2023-02-01T10:03:11;9.30;99.90
49765;DHT22;35657;51.204;-4.130;2023-02-01T10:17:10;9.60;99.90
49765;DHT22;35657;51.204;-4.130;2023-02-01T10:25:24;9.60;99.90
49765;DHT22;35657;51.204;-4.130;2023-02-01T10:27:51;9.60;99.90
49765;DHT22;35657;51.204;-4.130;2023-02-01T10:30:23;9.70;99.90
49765;DHT22;35657;51.204;-4.130;2023-02-01T10:32:54;9.70;99.90
49765;DHT22;35657;51.204;-4.130;2023-02-01T10:35:29;9.70;99.90
49765;DHT22;35657;51.204;-4.130;2023-02-01T10:38:00;9.70;99.90
49765;DHT22;35657;51.204;-4.130;2023-02-01T10:40:27;9.80;99.90
49765;DHT22;35657;51.204;-4.130;2023-02-01T10:43:02;9.80;99.90
49765;DHT22;35657;51.204;-4.130;2023-02-01T10:45:30;9.80;99.90
49765;DHT22;35657;51.204;-4.130;2023-02-01T10:47:59;9.90;99.90
49765;DHT22;35657;51.204;-4.130;2023-02-01T10:53:33;9.80;99.90
49765;DHT22;35657;51.204;-4.130;2023-02-01T10:56:07;9.80;99.90
49765;DHT22;35657;51.204;-4.130;2023-02-01T10:58:36;9.80;99.90
49765;DHT22;35657;51.204;-4.130;2023-02-01T11:01:04;9.80;99.90
49765;DHT22;35657;51.204;-4.130;2023-02-01T11:03:42;9.80;99.90
49765;DHT22;35657;51.204;-4.130;2023-02-01T11:08:51;9.80;99.90
49765;DHT22;35657;51.204;-4.130;2023-02-01T11:11:19;9.80;99.90
49765;DHT22;35657;51.204;-4.130;2023-02-01T11:13:53;9.80;99.90
49765;DHT22;35657;51.204;-4.130;2023-02-01T11:16:19;9.80;99.90
49765;DHT22;35657;51.204;-4.130;2023-02-01T11:18:45;9.80;99.90
49765;DHT22;35657;51.204;-4.130;2023-02-01T11:21:18;9.90;99.90
49765;DHT22;35657;51.204;-4.130;2023-02-01T11:23:45;9.80;99.90
49765;DHT22;35657;51.204;-4.130;2023-02-01T11:26:22;9.90;99.90
49765;DHT22;35657;51.204;-4.130;2023-02-01T11:29:13;9.90;99.90
49765;DHT22;35657;51.204;-4.130;2023-02-01T11:31:40;9.90;99.90
49765;DHT22;35657;51.204;-4.130;2023-02-01T11:34:20;9.90;99.90
49765;DHT22;35657;51.204;-4.130;2023-02-01T11:36:48;9.80;99.90
49765;DHT22;35657;51.204;-4.130;2023-02-01T11:41:44;9.90;99.90
49765;DHT22;35657;51.204;-4.130;2023-02-01T11:44:41;9.90;99.90
49765;DHT22;35657;51.204;-4.130;2023-02-01T11:49:56;9.90;99.90
49765;DHT22;35657;51.204;-4.130;2023-02-01T12:04:16;10.10;99.90
49765;DHT22;35657;51.204;-4.130;2023-02-01T12:06:52;10.30;99.90
49765;DHT22;35657;51.204;-4.130;2023-02-01T12:09:45;10.30;99.90
49765;DHT22;35657;51.204;-4.130;2023-02-01T12:26:52;10.40;99.90
49765;DHT22;35657;51.204;-4.130;2023-02-01T12:43:47;10.40;99.90
49765;DHT22;35657;51.204;-4.130;2023-02-01T12:46:19;10.40;99.90
49765;DHT22;35657;51.204;-4.130;2023-02-01T12:51:38;10.30;99.90
49765;DHT22;35657;51.204;-4.130;2023-02-01T12:55:05;10.30;99.90
49765;DHT22;35657;51.204;-4.130;2023-02-01T12:57:18;10.40;99.90
49765;DHT22;35657;51.204;-4.130;2023-02-01T13:00:13;10.30;99.90
49765;DHT22;35657;51.204;-4.130;2023-02-01T13:02:41;10.20;99.90
49765;DHT22;35657;51.204;-4.130;2023-02-01T13:05:22;10.30;99.90
49765;DHT22;35657;51.204;-4.130;2023-02-01T13:16:30;10.10;99.90
49765;DHT22;35657;51.204;-4.130;2023-02-01T13:22:09;10.10;99.90
49765;DHT22;35657;51.204;-4.130;2023-02-01T13:25:11;10.10;99.90
49765;DHT22;35657;51.204;-4.130;2023-02-01T13:27:32;10.10;99.90
49765;DHT22;35657;51.204;-4.130;2023-02-01T13:38:07;10.10;99.90
49765;DHT22;35657;51.204;-4.130;2023-02-01T13:43:27;10.10;99.90
49765;DHT22;35657;51.204;-4.130;2023-02-01T13:45:56;10.10;99.90
49765;DHT22;35657;51.204;-4.130;2023-02-01T13:50:55;10.20;99.90
49765;DHT22;35657;51.204;-4.130;2023-02-01T13:53:31;10.10;99.90
49765;DHT22;35657;51.204;-4.130;2023-02-01T13:56:13;10.20;99.90
49765;DHT22;35657;51.204;-4.130;2023-02-01T13:58:42;10.20;99.90
49765;DHT22;35657;51.204;-4.130;2023-02-01T14:16:42;10.10;99.90
49765;DHT22;35657;51.204;-4.130;2023-02-01T14:19:18;10.10;99.90
49765;DHT22;35657;51.204;-4.130;2023-02-01T14:21:52;10.10;99.90
49765;DHT22;35657;51.204;-4.130;2023-02-01T14:24:27;10.20;99.90
49765;DHT22;35657;51.204;-4.130;2023-02-01T14:26:54;10.10;99.90
49765;DHT22;35657;51.204;-4.130;2023-02-01T14:29:37;10.10;99.90
49765;DHT22;35657;51.204;-4.130;2023-02-01T14:32:20;10.10;99.90
49765;DHT22;35657;51.204;-4.130;2023-02-01T14:47:50;10.10;99.90
49765;DHT22;35657;51.204;-4.130;2023-02-01T14:55:45;10.10;99.90
49765;DHT22;35657;51.204;-4.130;2023-02-01T14:58:16;10.10;99.90
49765;DHT22;35657;51.204;-4.130;2023-02-01T15:00:53;10.10;99.90
49765;DHT22;35657;51.204;-4.130;2023-02-01T15:06:26;10.10;99.90
49765;DHT22;35657;51.204;-4.130;2023-02-01T15:14:21;10.00;99.90
49765;DHT22;35657;51.204;-4.130;2023-02-01T15:16:47;10.00;99.90
49765;DHT22;35657;51.204;-4.130;2023-02-01T15:19:20;10.00;99.90
49765;DHT22;35657;51.204;-4.130;2023-02-01T15:21:52;10.00;99.90
49765;DHT22;35657;51.204;-4.130;2023-02-01T15:24:26;10.00;99.90
49765;DHT22;35657;51.204;-4.130;2023-02-01T15:26:54;10.10;99.90
49765;DHT22;35657;51.204;-4.130;2023-02-01T15:29:22;10.00;99.90
49765;DHT22;35657;51.204;-4.130;2023-02-01T15:31:52;10.10;99.90
49765;DHT22;35657;51.204;-4.130;2023-02-01T15:34:19;10.00;99.90
49765;DHT22;35657;51.204;-4.130;2023-02-01T15:36:46;10.00;99.90
49765;DHT22;35657;51.204;-4.130;2023-02-01T15:41:50;10.00;99.90
49765;DHT22;35657;51.204;-4.130;2023-02-01T15:44:39;10.00;99.90
49765;DHT22;35657;51.204;-4.130;2023-02-01T15:47:15;10.00;99.90
49765;DHT22;35657;51.204;-4.130;2023-02-01T15:49:44;10.00;99.90
49765;DHT22;35657;51.204;-4.130;2023-02-01T15:52:36;10.00;99.90
49765;DHT22;35657;51.204;-4.130;2023-02-01T15:55:08;10.00;99.90
49765;DHT22;35657;51.204;-4.130;2023-02-01T15:57:38;10.10;99.90
49765;DHT22;35657;51.204;-4.130;2023-02-01T16:00:18;10.20;99.90
49765;DHT22;35657;51.204;-4.130;2023-02-01T16:02:58;10.10;99.90
49765;DHT22;35657;51.204;-4.130;2023-02-01T16:08:22;10.00;99.90
49765;DHT22;35657;51.204;-4.130;2023-02-01T16:10:53;10.00;99.90
49765;DHT22;35657;51.204;-4.130;2023-02-01T16:13:20;10.00;99.90
49765;DHT22;35657;51.204;-4.130;2023-02-01T16:15:47;10.00;99.90
49765;DHT22;35657;51.204;-4.130;2023-02-01T16:18:13;10.00;99.90
49765;DHT22;35657;51.204;-4.130;2023-02-01T16:20:40;10.00;99.90
49765;DHT22;35657;51.204;-4.130;2023-02-01T16:23:07;10.00;99.90
49765;DHT22;35657;51.204;-4.130;2023-02-01T16:25:34;10.00;99.90
49765;DHT22;35657;51.204;-4.130;2023-02-01T16:28:01;9.90;99.90
49765;DHT22;35657;51.204;-4.130;2023-02-01T16:30:27;9.90;99.90
49765;DHT22;35657;51.204;-4.130;2023-02-01T16:32:57;9.90;99.90
49765;DHT22;35657;51.204;-4.130;2023-02-01T16:35:34;9.90;99.90
49765;DHT22;35657;51.204;-4.130;2023-02-01T16:38:03;9.90;99.90
49765;DHT22;35657;51.204;-4.130;2023-02-01T16:40:35;9.90;99.90
49765;DHT22;35657;51.204;-4.130;2023-02-01T16:43:01;10.00;99.90
49765;DHT22;35657;51.204;-4.130;2023-02-01T16:45:27;10.10;99.90
49765;DHT22;35657;51.204;-4.130;2023-02-01T16:47:54;10.20;99.90
49765;DHT22;35657;51.204;-4.130;2023-02-01T16:50:22;10.20;99.90
49765;DHT22;35657;51.204;-4.130;2023-02-01T16:52:48;10.10;99.90
49765;DHT22;35657;51.204;-4.130;2023-02-01T16:55:16;10.10;99.90
49765;DHT22;35657;51.204;-4.130;2023-02-01T16:57:43;10.00;99.90
49765;DHT22;35657;51.204;-4.130;2023-02-01T17:00:11;9.90;99.90
49765;DHT22;35657;51.204;-4.130;2023-02-01T17:02:41;9.90;99.90
49765;DHT22;35657;51.204;-4.130;2023-02-01T17:05:08;9.90;99.90
49765;DHT22;35657;51.204;-4.130;2023-02-01T17:07:35;9.90;99.90
49765;DHT22;35657;51.204;-4.130;2023-02-01T17:10:04;9.90;99.90
49765;DHT22;35657;51.204;-4.130;2023-02-01T17:12:32;9.80;99.90
49765;DHT22;35657;51.204;-4.130;2023-02-01T17:14:59;9.80;99.90
49765;DHT22;35657;51.204;-4.130;2023-02-01T17:17:33;9.80;99.90
49765;DHT22;35657;51.204;-4.130;2023-02-01T17:20:01;9.80;99.90
49765;DHT22;35657;51.204;-4.130;2023-02-01T17:22:28;9.80;99.90
49765;DHT22;35657;51.204;-4.130;2023-02-01T17:24:54;9.80;99.90
49765;DHT22;35657;51.204;-4.130;2023-02-01T17:27:21;9.80;99.90
49765;DHT22;35657;51.204;-4.130;2023-02-01T17:29:46;9.80;99.90
49765;DHT22;35657;51.204;-4.130;2023-02-01T17:32:19;9.70;99.90
49765;DHT22;35657;51.204;-4.130;2023-02-01T17:34:46;9.70;99.90
49765;DHT22;35657;51.204;-4.130;2023-02-01T17:37:24;9.70;99.90
49765;DHT22;35657;51.204;-4.130;2023-02-01T17:39:50;9.70;99.90
49765;DHT22;35657;51.204;-4.130;2023-02-01T17:42:19;9.70;99.90
49765;DHT22;35657;51.204;-4.130;2023-02-01T17:44:45;9.70;99.90
49765;DHT22;35657;51.204;-4.130;2023-02-01T17:47:11;9.70;99.90
49765;DHT22;35657;51.204;-4.130;2023-02-01T17:49:37;9.60;99.90
49765;DHT22;35657;51.204;-4.130;2023-02-01T17:52:04;9.60;99.90
49765;DHT22;35657;51.204;-4.130;2023-02-01T17:54:30;9.60;99.90
49765;DHT22;35657;51.204;-4.130;2023-02-01T17:56:55;9.60;99.90
49765;DHT22;35657;51.204;-4.130;2023-02-01T17:59:25;9.60;99.90
49765;DHT22;35657;51.204;-4.130;2023-02-01T18:01:51;9.60;99.90
49765;DHT22;35657;51.204;-4.130;2023-02-01T18:04:18;9.70;99.90
49765;DHT22;35657;51.204;-4.130;2023-02-01T18:06:46;9.60;99.90
49765;DHT22;35657;51.204;-4.130;2023-02-01T18:09:11;9.70;99.90
49765;DHT22;35657;51.204;-4.130;2023-02-01T18:11:37;9.70;99.90
49765;DHT22;35657;51.204;-4.130;2023-02-01T18:14:03;9.70;99.90
49765;DHT22;35657;51.204;-4.130;2023-02-01T18:16:32;9.70;99.90
49765;DHT22;35657;51.204;-4.130;2023-02-01T18:18:58;9.70;99.90
49765;DHT22;35657;51.204;-4.130;2023-02-01T18:21:37;9.70;99.90
49765;DHT22;35657;51.204;-4.130;2023-02-01T18:24:04;9.80;99.90
49765;DHT22;35657;51.204;-4.130;2023-02-01T18:26:30;9.70;99.90
49765;DHT22;35657;51.204;-4.130;2023-02-01T18:28:55;9.70;99.90
49765;DHT22;35657;51.204;-4.130;2023-02-01T18:33:47;9.70;99.90
49765;DHT22;35657;51.204;-4.130;2023-02-01T18:36:13;9.70;99.90
49765;DHT22;35657;51.204;-4.130;2023-02-01T18:38:40;9.70;99.90
49765;DHT22;35657;51.204;-4.130;2023-02-01T18:41:15;9.70;99.90
49765;DHT22;35657;51.204;-4.130;2023-02-01T18:43:41;9.60;99.90
49765;DHT22;35657;51.204;-4.130;2023-02-01T18:46:10;9.60;99.90
49765;DHT22;35657;51.204;-4.130;2023-02-01T18:48:37;9.60;99.90
49765;DHT22;35657;51.204;-4.130;2023-02-01T18:51:03;9.60;99.90
49765;DHT22;35657;51.204;-4.130;2023-02-01T18:53:29;9.60;99.90